createdAt,value
2018-01-21T00:01:40.360Z,73.50
2018-01-21T00:04:11.196Z,73.30
2018-01-21T00:06:41.468Z,73.31
2018-01-21T00:09:12.947Z,73.24
2018-01-21T00:11:43.618Z,73.59
2018-01-21T00:14:13.995Z,74.18
2018-01-21T00:16:45.496Z,73.89
2018-01-21T00:19:16.515Z,73.63
2018-01-21T00:21:46.641Z,73.68
2018-01-21T00:24:18.116Z,73.63
2018-01-21T00:26:48.576Z,73.49
2018-01-21T00:29:20.604Z,73.53
2018-01-21T00:31:52.425Z,73.42
2018-01-21T00:34:23.737Z,73.25
2018-01-21T00:36:55.627Z,72.56
2018-01-21T00:39:27.949Z,72.80
2018-01-21T00:41:58.450Z,72.71
2018-01-21T00:44:29.066Z,72.87
2018-01-21T00:46:59.580Z,72.28
2018-01-21T00:49:30.087Z,72.08
2018-01-21T00:52:01.081Z,72.30
2018-01-21T00:54:32.916Z,72.39
2018-01-21T00:57:03.588Z,72.60
2018-01-21T00:59:34.004Z,72.35
2018-01-21T01:02:05.462Z,72.26
2018-01-21T01:04:37.046Z,73.00
2018-01-21T01:07:13.058Z,72.25
2018-01-21T01:09:46.664Z,72.51
2018-01-21T01:12:17.657Z,72.30
2018-01-21T01:14:48.823Z,72.11
2018-01-21T01:17:19.490Z,72.08
2018-01-21T01:19:50.338Z,72.26
2018-01-21T01:22:23.445Z,71.98
2018-01-21T01:24:53.920Z,72.21
2018-01-21T01:27:24.591Z,72.44
2018-01-21T01:29:55.168Z,72.57
2018-01-21T01:32:29.601Z,72.52
2018-01-21T01:35:00.079Z,72.54
2018-01-21T01:37:30.388Z,71.97
2018-01-21T01:40:01.159Z,72.09
2018-01-21T01:42:31.973Z,72.88
2018-01-21T01:45:05.365Z,72.77
2018-01-21T01:47:35.991Z,73.31
2018-01-21T01:50:06.227Z,73.24
2018-01-21T01:52:36.546Z,73.27
2018-01-21T01:55:06.836Z,73.31
2018-01-21T01:57:37.291Z,73.29
2018-01-21T02:00:08.569Z,73.74
2018-01-21T02:02:39.612Z,73.92
2018-01-21T02:05:09.991Z,73.84
2018-01-21T02:07:40.279Z,73.84
2018-01-21T02:10:10.628Z,74.20
2018-01-21T02:12:40.875Z,74.40
2018-01-21T02:15:14.132Z,74.64
2018-01-21T02:17:44.350Z,74.23
2018-01-21T02:20:20.293Z,74.08
2018-01-21T02:22:50.906Z,74.53
2018-01-21T02:25:24.656Z,74.82
2018-01-21T02:27:55.135Z,75.50
2018-01-21T02:30:27.146Z,74.76
2018-01-21T02:32:57.702Z,74.84
2018-01-21T02:35:28.141Z,74.67
2018-01-21T02:37:58.828Z,74.29
2018-01-21T02:40:32.054Z,74.56
2018-01-21T02:43:02.708Z,74.29
2018-01-21T02:45:33.473Z,73.76
2018-01-21T02:48:04.288Z,73.35
2018-01-21T02:50:35.179Z,73.61
2018-01-21T02:53:05.614Z,73.64
2018-01-21T02:55:36.372Z,73.76
2018-01-21T02:58:06.680Z,73.33
2018-01-21T03:00:37.015Z,72.65
2018-01-21T03:03:08.129Z,72.29
2018-01-21T03:05:38.923Z,72.44
2018-01-21T03:08:10.233Z,73.22
2018-01-21T03:10:40.622Z,73.07
2018-01-21T03:13:11.037Z,73.51
2018-01-21T03:15:42.609Z,73.55
2018-01-21T03:18:13.224Z,73.67
2018-01-21T03:20:43.378Z,73.31
2018-01-21T03:23:13.889Z,73.10
2018-01-21T03:25:44.945Z,72.71
2018-01-21T03:28:15.284Z,72.82
2018-01-21T03:30:45.596Z,72.59
2018-01-21T03:33:17.997Z,72.46
2018-01-21T03:35:48.240Z,72.49
2018-01-21T03:38:18.724Z,72.75
2018-01-21T03:40:49.003Z,72.58
2018-01-21T03:43:19.338Z,72.71
2018-01-21T03:45:50.642Z,72.71
2018-01-21T03:48:31.928Z,72.29
2018-01-21T03:51:02.571Z,72.72
2018-01-21T03:53:33.561Z,72.88
2018-01-21T03:56:04.249Z,73.02
2018-01-21T03:58:35.050Z,73.15
2018-01-21T04:01:05.733Z,73.91
2018-01-21T04:03:36.889Z,73.75
2018-01-21T04:06:07.227Z,73.22
2018-01-21T04:08:37.707Z,72.73
2018-01-21T04:11:08.356Z,72.80
2018-01-21T04:13:38.691Z,72.97
2018-01-21T04:16:09.658Z,73.60
2018-01-21T04:18:40.135Z,73.39
2018-01-21T04:21:10.741Z,73.30
2018-01-21T04:23:41.180Z,73.59
2018-01-21T04:26:11.694Z,73.67
2018-01-21T04:28:42.013Z,73.75
2018-01-21T04:31:12.492Z,73.61
2018-01-21T04:33:42.781Z,73.79
2018-01-21T04:36:13.716Z,73.92
2018-01-21T04:38:44.853Z,74.20
2018-01-21T04:41:15.011Z,74.59
2018-01-21T04:43:45.438Z,74.69
2018-01-21T04:46:16.732Z,74.85
2018-01-21T04:48:46.921Z,74.53
2018-01-21T04:51:17.242Z,74.59
2018-01-21T04:53:48.525Z,74.57
2018-01-21T04:56:28.596Z,74.60
2018-01-21T04:59:00.379Z,74.80
2018-01-21T05:01:31.829Z,74.86
2018-01-21T05:04:02.747Z,74.57
2018-01-21T05:06:33.006Z,74.33
2018-01-21T05:09:04.118Z,74.28
2018-01-21T05:11:35.750Z,74.27
2018-01-21T05:14:08.445Z,74.06
2018-01-21T05:19:13.184Z,74.20
2018-01-21T05:21:45.045Z,74.16
2018-01-21T05:24:17.851Z,74.13
2018-01-21T05:26:50.239Z,74.36
2018-01-21T05:29:22.295Z,74.20
2018-01-21T05:31:53.881Z,73.88
2018-01-21T05:34:24.335Z,73.72
2018-01-21T05:36:55.952Z,73.69
2018-01-21T05:39:28.200Z,73.72
2018-01-21T05:41:58.382Z,73.67
2018-01-21T05:44:28.588Z,73.37
2018-01-21T05:46:59.727Z,73.16
2018-01-21T05:49:30.063Z,72.85
2018-01-21T05:52:00.616Z,72.56
2018-01-21T05:54:31.642Z,72.62
2018-01-21T05:57:02.160Z,72.71
2018-01-21T05:59:33.366Z,72.68
2018-01-21T06:02:04.182Z,72.63
2018-01-21T06:04:34.679Z,72.82
2018-01-21T06:07:06.583Z,72.91
2018-01-21T06:09:37.248Z,72.75
2018-01-21T06:12:07.451Z,72.83
2018-01-21T06:14:38.177Z,72.76
2018-01-21T06:17:08.922Z,72.67
2018-01-21T06:19:39.304Z,72.45
2018-01-21T06:22:09.992Z,72.10
2018-01-21T06:24:40.251Z,71.94
2018-01-21T06:27:10.431Z,72.20
2018-01-21T06:29:40.559Z,72.63
2018-01-21T06:32:11.629Z,72.58
2018-01-21T06:34:42.285Z,73.21
2018-01-21T06:37:12.843Z,73.18
2018-01-21T06:39:44.038Z,73.22
2018-01-21T06:42:14.279Z,72.77
2018-01-21T06:44:45.174Z,72.87
2018-01-21T06:47:15.729Z,72.63
2018-01-21T06:49:46.230Z,72.47
2018-01-21T06:52:20.142Z,72.49
2018-01-21T06:54:50.975Z,72.47
2018-01-21T06:57:21.349Z,72.38
2018-01-21T06:59:51.704Z,72.16
2018-01-21T07:02:22.694Z,72.28
2018-01-21T07:04:52.857Z,72.18
2018-01-21T07:07:30.236Z,72.21
2018-01-21T07:10:00.970Z,71.90
2018-01-21T07:12:31.913Z,72.02
2018-01-21T07:15:04.795Z,71.81
2018-01-21T07:17:35.484Z,71.13
2018-01-21T07:20:06.022Z,71.06
2018-01-21T07:22:36.336Z,70.84
2018-01-21T07:25:06.704Z,70.55
2018-01-21T07:27:37.033Z,70.76
2018-01-21T07:30:09.086Z,70.25
2018-01-21T07:32:39.577Z,70.76
2018-01-21T07:35:09.933Z,70.69
2018-01-21T07:37:40.905Z,70.38
2018-01-21T07:40:11.188Z,70.56
2018-01-21T07:42:41.568Z,70.57
2018-01-21T07:45:14.270Z,70.74
2018-01-21T07:47:44.563Z,70.32
2018-01-21T07:50:15.739Z,70.65
2018-01-21T07:52:46.348Z,70.62
2018-01-21T07:55:16.807Z,70.51
2018-01-21T07:57:47.116Z,70.09
2018-01-21T08:00:19.576Z,69.92
2018-01-21T08:02:50.000Z,70.25
2018-01-21T08:05:20.352Z,70.33
2018-01-21T08:07:50.627Z,70.04
2018-01-21T08:10:21.356Z,69.58
2018-01-21T08:12:52.507Z,69.95
2018-01-21T08:15:23.124Z,69.79
2018-01-21T08:17:53.717Z,69.61
2018-01-21T08:20:24.613Z,69.43
2018-01-21T08:22:57.159Z,68.99
2018-01-21T08:25:27.570Z,68.77
2018-01-21T08:27:58.197Z,68.26
2018-01-21T08:30:28.889Z,68.43
2018-01-21T08:32:59.997Z,68.86
2018-01-21T08:37:42.220Z,68.60
2018-01-21T08:42:21.779Z,68.62
2018-01-21T08:44:52.386Z,68.80
2018-01-21T08:47:22.886Z,68.03
2018-01-21T08:49:53.473Z,68.23
2018-01-21T08:52:23.943Z,68.58
2018-01-21T08:54:55.763Z,68.70
2018-01-21T08:57:27.064Z,68.14
2018-01-21T08:59:57.460Z,67.60
2018-01-21T09:02:28.107Z,67.94
2018-01-21T09:04:58.718Z,68.38
2018-01-21T09:07:29.529Z,68.63
2018-01-21T09:10:00.093Z,68.47
2018-01-21T09:12:30.300Z,68.14
2018-01-21T09:15:00.587Z,67.77
2018-01-21T09:17:34.537Z,67.82
2018-01-21T09:20:05.083Z,67.76
2018-01-21T09:22:35.375Z,67.31
2018-01-21T09:25:05.537Z,67.08
2018-01-21T09:27:36.225Z,67.29
2018-01-21T09:30:08.214Z,66.97
2018-01-21T09:32:43.911Z,66.22
2018-01-21T09:35:14.153Z,66.44
2018-01-21T09:37:44.641Z,66.11
2018-01-21T09:40:15.233Z,66.12
2018-01-21T09:42:49.440Z,65.80
2018-01-21T09:45:26.228Z,65.65
2018-01-21T09:47:59.402Z,65.76
2018-01-21T09:50:30.362Z,65.42
2018-01-21T09:53:00.817Z,64.30
2018-01-21T09:55:38.110Z,64.80
2018-01-21T09:58:12.334Z,65.68
2018-01-21T10:00:43.657Z,66.25
2018-01-21T10:03:14.583Z,66.07
2018-01-21T10:05:45.019Z,65.42
2018-01-21T10:08:16.082Z,65.21
2018-01-21T10:10:47.081Z,65.35
2018-01-21T10:13:18.956Z,64.91
2018-01-21T10:15:50.849Z,64.93
2018-01-21T10:18:22.568Z,65.24
2018-01-21T10:20:53.511Z,64.77
2018-01-21T10:23:24.092Z,64.05
2018-01-21T10:28:32.482Z,64.18
2018-01-21T10:31:03.134Z,63.79
2018-01-21T10:33:34.633Z,63.95
2018-01-21T10:36:06.274Z,62.84
2018-01-21T10:38:38.168Z,63.47
2018-01-21T10:41:09.231Z,62.82
2018-01-21T10:43:39.796Z,62.69
2018-01-21T10:46:14.723Z,62.68
2018-01-21T10:48:50.033Z,62.51
2018-01-21T10:51:20.689Z,61.82
2018-01-21T10:53:51.711Z,62.19
2018-01-21T10:56:24.142Z,61.79
2018-01-21T10:58:54.719Z,61.61
2018-01-21T11:01:25.285Z,59.94
2018-01-21T11:03:56.841Z,60.97
2018-01-21T11:06:28.784Z,60.63
2018-01-21T11:09:02.367Z,59.69
2018-01-21T11:11:34.320Z,58.10
2018-01-21T11:14:05.452Z,58.94
2018-01-21T11:16:37.394Z,60.04
2018-01-21T11:19:09.977Z,59.52
2018-01-21T11:21:40.786Z,59.26
2018-01-21T11:24:11.361Z,59.75
2018-01-21T11:26:43.782Z,59.07
2018-01-21T11:29:14.763Z,59.50
2018-01-21T11:31:47.722Z,60.55
2018-01-21T11:34:20.271Z,60.34
2018-01-21T11:36:52.816Z,60.00
2018-01-21T11:39:25.274Z,59.74
2018-01-21T11:41:58.148Z,57.45
2018-01-21T11:44:32.095Z,57.36
2018-01-21T11:47:10.740Z,58.68
2018-01-21T11:49:39.735Z,58.58
2018-01-21T11:52:10.769Z,58.06
2018-01-21T11:54:43.119Z,57.64
2018-01-21T11:57:16.761Z,58.40
2018-01-21T11:59:49.116Z,58.55
2018-01-21T12:02:28.105Z,58.83
2018-01-21T12:05:05.667Z,58.99
2018-01-21T12:07:38.062Z,58.99
2018-01-21T12:10:11.791Z,57.62
2018-01-21T12:12:45.196Z,58.02
2018-01-21T12:15:20.620Z,58.29
2018-01-21T12:17:55.556Z,57.67
2018-01-21T12:20:27.427Z,57.73
2018-01-21T12:23:01.154Z,57.21
2018-01-21T12:25:35.590Z,56.07
2018-01-21T12:28:07.695Z,55.04
2018-01-21T12:30:40.493Z,54.71
2018-01-21T12:33:13.174Z,53.68
2018-01-21T12:35:47.726Z,52.83
2018-01-21T12:38:20.756Z,52.35
2018-01-21T12:40:53.071Z,51.14
2018-01-21T12:43:26.073Z,50.52
2018-01-21T12:46:03.338Z,51.10
2018-01-21T12:48:37.608Z,50.68
2018-01-21T12:51:11.420Z,51.58
2018-01-21T12:53:44.287Z,52.13
2018-01-21T12:56:20.234Z,52.08
2018-01-21T12:58:53.995Z,52.63
2018-01-21T13:01:29.802Z,52.93
2018-01-21T13:04:05.951Z,52.28
2018-01-21T13:06:39.915Z,51.99
2018-01-21T13:09:11.831Z,52.57
2018-01-21T13:11:44.024Z,51.08
2018-01-21T13:14:16.514Z,52.23
2018-01-21T13:16:50.098Z,50.73
2018-01-21T13:19:25.325Z,48.60
2018-01-21T13:22:00.171Z,49.33
2018-01-21T13:24:33.253Z,50.12
2018-01-21T13:27:06.453Z,50.81
2018-01-21T13:29:40.025Z,50.80
2018-01-21T13:32:11.888Z,51.00
2018-01-21T13:34:46.525Z,51.37
2018-01-21T13:40:03.767Z,52.30
2018-01-21T13:42:36.883Z,52.59
2018-01-21T13:45:10.425Z,52.43
2018-01-21T13:47:46.257Z,52.78
2018-01-21T13:50:21.298Z,53.16
2018-01-21T13:52:56.495Z,52.47
2018-01-21T13:58:10.193Z,51.69
2018-01-21T14:00:50.481Z,51.81
2018-01-21T14:03:26.783Z,52.06
2018-01-21T14:06:00.950Z,51.71
2018-01-21T14:08:38.201Z,51.88
2018-01-21T14:11:11.009Z,52.40
2018-01-21T14:13:46.041Z,52.34
2018-01-21T14:16:19.705Z,52.53
2018-01-21T14:18:53.749Z,52.83
2018-01-21T14:21:27.379Z,53.31
2018-01-21T14:23:59.852Z,52.85
2018-01-21T14:26:31.386Z,53.43
2018-01-21T14:29:04.380Z,53.63
2018-01-21T14:31:40.545Z,54.32
2018-01-21T14:34:14.867Z,53.90
2018-01-21T14:36:50.586Z,53.27
2018-01-21T14:39:30.837Z,54.02
2018-01-21T14:42:02.627Z,53.83
2018-01-21T14:44:35.600Z,54.02
2018-01-21T14:47:11.268Z,54.08
2018-01-21T14:49:45.636Z,53.97
2018-01-21T14:52:19.676Z,54.10
2018-01-21T14:54:53.637Z,54.50
2018-01-21T14:57:28.114Z,54.62
2018-01-21T15:00:04.710Z,54.88
2018-01-21T15:02:39.645Z,55.24
2018-01-21T15:05:17.481Z,56.01
2018-01-21T15:07:52.249Z,56.19
2018-01-21T15:10:28.824Z,57.22
2018-01-21T15:13:00.975Z,57.70
2018-01-21T15:15:32.838Z,57.22
2018-01-21T15:18:05.938Z,56.67
2018-01-21T15:20:39.826Z,56.56
2018-01-21T15:23:13.951Z,56.50
2018-01-21T15:25:47.291Z,56.46
2018-01-21T15:28:24.487Z,57.26
2018-01-21T15:30:59.909Z,57.39
2018-01-21T15:33:34.828Z,57.71
2018-01-21T15:36:10.553Z,57.80
2018-01-21T15:38:42.866Z,58.77
2018-01-21T15:41:14.010Z,58.65
2018-01-21T15:43:46.788Z,58.25
2018-01-21T15:46:37.147Z,58.21
2018-01-21T15:49:11.373Z,58.00
2018-01-21T15:51:46.219Z,58.26
2018-01-21T15:54:18.067Z,58.32
2018-01-21T15:56:50.391Z,58.82
2018-01-21T15:59:23.063Z,58.68
2018-01-21T16:01:58.708Z,58.63
2018-01-21T16:04:30.417Z,58.66
2018-01-21T16:07:06.656Z,58.74
2018-01-21T16:09:39.632Z,58.92
2018-01-21T16:12:10.956Z,58.80
2018-01-21T16:14:43.511Z,58.59
2018-01-21T16:17:15.557Z,58.69
2018-01-21T16:19:49.234Z,58.96
2018-01-21T16:22:27.353Z,60.06
2018-01-21T16:24:58.607Z,59.41
2018-01-21T16:27:29.825Z,59.39
2018-01-21T16:30:01.004Z,59.73
2018-01-21T16:32:36.250Z,60.06
2018-01-21T16:35:10.855Z,60.74
2018-01-21T16:37:50.243Z,60.14
2018-01-21T16:40:20.916Z,59.93
2018-01-21T16:42:51.400Z,60.15
2018-01-21T16:45:24.433Z,60.29
2018-01-21T16:47:55.367Z,61.21
2018-01-21T16:50:27.226Z,60.76
2018-01-21T16:52:59.926Z,60.49
2018-01-21T16:55:32.796Z,60.57
2018-01-21T16:58:04.181Z,60.98
2018-01-21T17:00:36.266Z,61.19
2018-01-21T17:03:08.505Z,60.69
2018-01-21T17:05:39.837Z,60.98
2018-01-21T17:08:10.837Z,61.44
2018-01-21T17:10:41.560Z,61.50
2018-01-21T17:13:12.214Z,61.22
2018-01-21T17:15:43.468Z,61.57
2018-01-21T17:18:14.537Z,61.46
2018-01-21T17:20:47.280Z,62.18
2018-01-21T17:23:18.103Z,62.74
2018-01-21T17:25:50.646Z,63.68
2018-01-21T17:31:00.839Z,63.43
2018-01-21T17:33:31.627Z,63.98
2018-01-21T17:36:02.509Z,63.39
2018-01-21T17:38:33.081Z,63.66
2018-01-21T17:41:04.410Z,64.53
2018-01-21T17:43:36.071Z,64.97
2018-01-21T17:46:10.224Z,65.06
2018-01-21T17:48:42.273Z,65.05
2018-01-21T17:51:12.790Z,63.61
2018-01-21T17:53:43.734Z,63.81
2018-01-21T17:56:15.162Z,63.37
2018-01-21T17:58:46.620Z,62.82
2018-01-21T18:01:26.440Z,62.30
2018-01-21T18:03:58.219Z,61.87
2018-01-21T18:06:32.902Z,62.30
2018-01-21T18:09:11.682Z,63.61
2018-01-21T18:11:46.812Z,62.87
2018-01-21T18:14:20.565Z,63.43
2018-01-21T18:16:53.108Z,63.65
2018-01-21T18:19:30.904Z,64.16
2018-01-21T18:22:02.231Z,64.29
2018-01-21T18:24:36.151Z,63.13
2018-01-21T18:27:07.326Z,62.34
2018-01-21T18:29:38.778Z,61.68
2018-01-21T18:32:11.773Z,61.22
2018-01-21T18:34:42.432Z,61.28
2018-01-21T18:37:13.350Z,61.05
2018-01-21T18:39:44.282Z,61.82
2018-01-21T18:42:16.491Z,61.65
2018-01-21T18:44:49.311Z,61.48
2018-01-21T18:47:21.454Z,61.08
2018-01-21T18:49:56.216Z,60.94
2018-01-21T18:52:28.953Z,60.97
2018-01-21T18:55:00.277Z,60.71
2018-01-21T18:57:32.518Z,61.04
2018-01-21T19:03:01.387Z,61.01
2018-01-21T19:05:33.340Z,61.45
2018-01-21T19:08:05.560Z,61.55
2018-01-21T19:10:37.790Z,61.24
2018-01-21T19:13:13.281Z,61.41
2018-01-21T19:15:44.821Z,60.96
2018-01-21T19:18:15.583Z,60.79
2018-01-21T19:20:47.106Z,60.71
2018-01-21T19:23:17.748Z,60.30
2018-01-21T19:25:49.044Z,60.62
2018-01-21T19:28:23.748Z,60.99
2018-01-21T19:30:55.810Z,60.85
2018-01-21T19:33:28.898Z,61.19
2018-01-21T19:36:02.838Z,60.92
2018-01-21T19:38:37.916Z,61.82
2018-01-21T19:41:12.974Z,61.52
2018-01-21T19:43:44.554Z,62.07
2018-01-21T19:46:16.425Z,61.70
2018-01-21T19:48:48.557Z,61.73
2018-01-21T19:51:19.128Z,61.80
2018-01-21T19:53:50.030Z,61.41
2018-01-21T19:56:21.372Z,61.69
2018-01-21T20:01:31.254Z,62.42
2018-01-21T20:04:03.635Z,62.51
2018-01-21T20:06:35.138Z,62.78
2018-01-21T20:09:07.266Z,62.49
2018-01-21T20:11:38.577Z,62.69
2018-01-21T20:14:10.103Z,62.76
2018-01-21T20:16:40.956Z,62.80
2018-01-21T20:19:12.442Z,63.21
2018-01-21T20:21:44.577Z,63.02
2018-01-21T20:24:15.488Z,62.94
2018-01-21T20:26:46.408Z,63.08
2018-01-21T20:29:16.897Z,63.22
2018-01-21T20:31:48.431Z,63.13
2018-01-21T20:34:20.163Z,63.36
2018-01-21T20:36:56.920Z,62.92
2018-01-21T20:39:27.701Z,62.95
2018-01-21T20:41:59.481Z,62.67
2018-01-21T20:44:30.091Z,63.03
2018-01-21T20:47:01.819Z,62.77
2018-01-21T20:49:33.290Z,62.85
2018-01-21T20:52:09.101Z,62.50
2018-01-21T20:54:40.932Z,61.83
2018-01-21T20:57:11.581Z,61.71
2018-01-21T20:59:42.995Z,62.03
2018-01-21T21:02:14.561Z,62.04
2018-01-21T21:04:44.967Z,61.44
2018-01-21T21:07:16.117Z,61.06
2018-01-21T21:09:47.850Z,60.50
2018-01-21T21:12:18.579Z,60.33
2018-01-21T21:14:49.215Z,60.79
2018-01-21T21:17:20.005Z,60.56
2018-01-21T21:19:52.496Z,59.96
2018-01-21T21:22:24.514Z,60.24
2018-01-21T21:24:54.901Z,60.55
2018-01-21T21:27:25.623Z,60.68
2018-01-21T21:29:57.246Z,60.41
2018-01-21T21:32:28.162Z,60.89
2018-01-21T21:34:58.765Z,61.11
2018-01-21T21:37:30.091Z,60.81
2018-01-21T21:40:00.791Z,60.54
2018-01-21T21:42:31.917Z,60.54
2018-01-21T21:45:05.847Z,60.85
2018-01-21T21:47:37.327Z,61.07
2018-01-21T21:50:08.232Z,60.70
2018-01-21T21:52:39.329Z,61.39
2018-01-21T21:55:09.839Z,61.11
2018-01-21T21:57:42.600Z,60.91
2018-01-21T22:00:19.642Z,61.15
2018-01-21T22:02:50.279Z,61.03
2018-01-21T22:05:21.508Z,60.60
2018-01-21T22:07:53.189Z,60.48
2018-01-21T22:10:24.569Z,60.99
2018-01-21T22:12:55.306Z,61.27
2018-01-21T22:15:26.595Z,61.22
2018-01-21T22:17:57.168Z,61.93
2018-01-21T22:20:27.761Z,62.13
2018-01-21T22:22:58.583Z,62.86
2018-01-21T22:25:29.092Z,62.44
2018-01-21T22:27:59.815Z,62.44
2018-01-21T22:30:31.873Z,63.72
2018-01-21T22:33:02.229Z,63.75
2018-01-21T22:35:33.007Z,63.64
2018-01-21T22:38:04.296Z,64.31
2018-01-21T22:40:34.959Z,65.64
2018-01-21T22:43:05.520Z,65.28
2018-01-21T22:45:36.403Z,66.53
2018-01-21T22:48:07.426Z,66.80
2018-01-21T22:50:37.877Z,66.65
2018-01-21T22:53:08.489Z,67.11
2018-01-21T22:55:39.813Z,68.02
2018-01-21T22:58:10.584Z,67.91
2018-01-21T23:00:41.548Z,68.09
2018-01-21T23:03:12.054Z,68.38
2018-01-21T23:05:42.490Z,69.03
2018-01-21T23:08:13.196Z,68.90
2018-01-21T23:10:43.828Z,69.63
2018-01-21T23:13:15.783Z,70.52
2018-01-21T23:15:46.551Z,70.20
2018-01-21T23:18:16.958Z,70.23
2018-01-21T23:21:00.045Z,70.31
2018-01-21T23:23:30.332Z,70.51
2018-01-21T23:26:01.189Z,70.89
2018-01-21T23:28:33.202Z,71.10
2018-01-21T23:31:03.476Z,71.63
2018-01-21T23:33:34.195Z,71.37
2018-01-21T23:36:04.523Z,71.41
2018-01-21T23:38:34.751Z,71.52
2018-01-21T23:41:05.352Z,71.58
2018-01-21T23:43:36.603Z,71.52
2018-01-21T23:46:07.148Z,71.56
2018-01-21T23:48:38.046Z,71.87
2018-01-21T23:51:08.382Z,72.52
2018-01-21T23:53:39.703Z,72.17
2018-01-21T23:56:10.284Z,72.55
2018-01-21T23:58:40.800Z,72.71
